sensor_id;sensor_type;location;lat;lon;timestamp;temperature;humidity
10249;DHT22;5169;50.560;9.714;2022-08-05T00:01:23;25.10;86.40
10249;DHT22;5169;50.560;9.714;2022-08-05T00:03:49;25.00;86.70
10249;DHT22;5169;50.560;9.714;2022-08-05T00:06:16;25.00;86.70
10249;DHT22;5169;50.560;9.714;2022-08-05T00:08:42;25.00;87.20
10249;DHT22;5169;50.560;9.714;2022-08-05T00:11:13;25.10;87.10
10249;DHT22;5169;50.560;9.714;2022-08-05T00:13:40;25.10;87.50
10249;DHT22;5169;50.560;9.714;2022-08-05T00:16:12;25.10;87.90
10249;DHT22;5169;50.560;9.714;2022-08-05T00:18:42;25.10;87.80
10249;DHT22;5169;50.560;9.714;2022-08-05T00:21:09;25.10;87.80
10249;DHT22;5169;50.560;9.714;2022-08-05T00:23:38;25.10;88.10
10249;DHT22;5169;50.560;9.714;2022-08-05T00:26:04;25.10;88.10
10249;DHT22;5169;50.560;9.714;2022-08-05T00:28:32;25.10;88.60
10249;DHT22;5169;50.560;9.714;2022-08-05T00:31:00;25.10;88.80
10249;DHT22;5169;50.560;9.714;2022-08-05T00:33:29;25.10;88.90
10249;DHT22;5169;50.560;9.714;2022-08-05T00:35:55;25.10;89.80
10249;DHT22;5169;50.560;9.714;2022-08-05T00:38:20;25.00;89.00
10249;DHT22;5169;50.560;9.714;2022-08-05T00:40:52;25.00;89.60
10249;DHT22;5169;50.560;9.714;2022-08-05T00:43:19;25.00;89.90
10249;DHT22;5169;50.560;9.714;2022-08-05T00:45:45;25.00;90.30
10249;DHT22;5169;50.560;9.714;2022-08-05T00:48:16;24.90;90.20
10249;DHT22;5169;50.560;9.714;2022-08-05T00:50:44;25.00;90.20
10249;DHT22;5169;50.560;9.714;2022-08-05T00:53:14;25.00;90.20
10249;DHT22;5169;50.560;9.714;2022-08-05T00:55:44;25.00;90.40
10249;DHT22;5169;50.560;9.714;2022-08-05T00:58:11;25.00;90.40
10249;DHT22;5169;50.560;9.714;2022-08-05T01:00:37;24.90;90.50
10249;DHT22;5169;50.560;9.714;2022-08-05T01:03:05;24.70;91.00
10249;DHT22;5169;50.560;9.714;2022-08-05T01:05:34;24.60;91.30
10249;DHT22;5169;50.560;9.714;2022-08-05T01:08:00;24.50;91.60
10249;DHT22;5169;50.560;9.714;2022-08-05T01:10:43;24.50;91.70
10249;DHT22;5169;50.560;9.714;2022-08-05T01:13:22;24.50;91.70
10249;DHT22;5169;50.560;9.714;2022-08-05T01:15:55;24.50;91.80
10249;DHT22;5169;50.560;9.714;2022-08-05T01:18:24;24.50;91.80
10249;DHT22;5169;50.560;9.714;2022-08-05T01:21:09;24.50;91.90
10249;DHT22;5169;50.560;9.714;2022-08-05T01:23:49;24.50;91.90
10249;DHT22;5169;50.560;9.714;2022-08-05T01:29:17;24.50;92.00
10249;DHT22;5169;50.560;9.714;2022-08-05T01:31:50;24.50;92.10
10249;DHT22;5169;50.560;9.714;2022-08-05T01:34:27;24.40;92.40
10249;DHT22;5169;50.560;9.714;2022-08-05T01:37:15;24.30;92.90
10249;DHT22;5169;50.560;9.714;2022-08-05T01:39:44;24.40;93.20
10249;DHT22;5169;50.560;9.714;2022-08-05T01:42:13;24.40;93.60
10249;DHT22;5169;50.560;9.714;2022-08-05T01:44:44;24.30;94.40
10249;DHT22;5169;50.560;9.714;2022-08-05T01:47:11;24.00;95.80
10249;DHT22;5169;50.560;9.714;2022-08-05T01:49:40;23.90;96.90
10249;DHT22;5169;50.560;9.714;2022-08-05T01:52:07;23.80;97.90
10249;DHT22;5169;50.560;9.714;2022-08-05T01:54:48;23.80;98.60
10249;DHT22;5169;50.560;9.714;2022-08-05T01:57:35;23.80;99.50
10249;DHT22;5169;50.560;9.714;2022-08-05T02:00:03;23.70;99.90
10249;DHT22;5169;50.560;9.714;2022-08-05T02:02:30;23.70;99.90
10249;DHT22;5169;50.560;9.714;2022-08-05T02:05:00;23.60;99.90
10249;DHT22;5169;50.560;9.714;2022-08-05T02:07:29;23.60;99.90
10249;DHT22;5169;50.560;9.714;2022-08-05T02:09:55;23.40;99.90
10249;DHT22;5169;50.560;9.714;2022-08-05T02:12:26;23.40;99.90
10249;DHT22;5169;50.560;9.714;2022-08-05T02:15:12;23.40;99.90
10249;DHT22;5169;50.560;9.714;2022-08-05T02:17:44;23.20;99.90
10249;DHT22;5169;50.560;9.714;2022-08-05T02:20:19;23.00;99.90
10249;DHT22;5169;50.560;9.714;2022-08-05T02:22:48;23.00;99.90
10249;DHT22;5169;50.560;9.714;2022-08-05T02:25:24;23.10;99.90
10249;DHT22;5169;50.560;9.714;2022-08-05T02:27:50;23.10;99.90
10249;DHT22;5169;50.560;9.714;2022-08-05T02:30:17;23.10;99.90
10249;DHT22;5169;50.560;9.714;2022-08-05T02:32:46;23.10;99.90
10249;DHT22;5169;50.560;9.714;2022-08-05T02:35:19;23.00;99.90
10249;DHT22;5169;50.560;9.714;2022-08-05T02:37:46;23.10;99.90
10249;DHT22;5169;50.560;9.714;2022-08-05T02:40:16;23.20;99.90
10249;DHT22;5169;50.560;9.714;2022-08-05T02:42:42;23.30;99.90
10249;DHT22;5169;50.560;9.714;2022-08-05T02:45:10;23.30;99.90
10249;DHT22;5169;50.560;9.714;2022-08-05T02:47:39;23.30;99.90
10249;DHT22;5169;50.560;9.714;2022-08-05T02:50:07;23.30;99.90
10249;DHT22;5169;50.560;9.714;2022-08-05T02:52:33;23.30;99.90
10249;DHT22;5169;50.560;9.714;2022-08-05T02:55:04;23.30;99.90
10249;DHT22;5169;50.560;9.714;2022-08-05T02:57:34;23.30;99.90
10249;DHT22;5169;50.560;9.714;2022-08-05T03:00:08;23.30;99.90
10249;DHT22;5169;50.560;9.714;2022-08-05T03:02:38;23.20;99.90
10249;DHT22;5169;50.560;9.714;2022-08-05T03:05:10;23.10;99.90
10249;DHT22;5169;50.560;9.714;2022-08-05T03:07:38;23.10;99.90
10249;DHT22;5169;50.560;9.714;2022-08-05T03:10:06;23.10;99.90
10249;DHT22;5169;50.560;9.714;2022-08-05T03:12:36;23.10;99.90
10249;DHT22;5169;50.560;9.714;2022-08-05T03:15:03;23.10;99.90
10249;DHT22;5169;50.560;9.714;2022-08-05T03:17:29;23.10;99.90
10249;DHT22;5169;50.560;9.714;2022-08-05T03:19:55;23.10;99.90
10249;DHT22;5169;50.560;9.714;2022-08-05T03:22:21;23.00;99.90
10249;DHT22;5169;50.560;9.714;2022-08-05T03:24:48;23.00;99.90
10249;DHT22;5169;50.560;9.714;2022-08-05T03:27:14;23.00;99.90
10249;DHT22;5169;50.560;9.714;2022-08-05T03:29:41;22.90;99.90
10249;DHT22;5169;50.560;9.714;2022-08-05T03:32:07;23.00;99.90
10249;DHT22;5169;50.560;9.714;2022-08-05T03:34:34;23.00;99.90
10249;DHT22;5169;50.560;9.714;2022-08-05T03:37:00;22.90;99.90
10249;DHT22;5169;50.560;9.714;2022-08-05T03:39:27;22.90;99.90
10249;DHT22;5169;50.560;9.714;2022-08-05T03:41:54;22.80;99.90
10249;DHT22;5169;50.560;9.714;2022-08-05T03:44:19;22.80;99.90
10249;DHT22;5169;50.560;9.714;2022-08-05T03:46:45;22.80;99.90
10249;DHT22;5169;50.560;9.714;2022-08-05T03:49:11;22.80;99.90
10249;DHT22;5169;50.560;9.714;2022-08-05T03:51:53;22.70;99.90
10249;DHT22;5169;50.560;9.714;2022-08-05T03:54:36;22.80;99.90
10249;DHT22;5169;50.560;9.714;2022-08-05T03:57:04;23.00;99.90
10249;DHT22;5169;50.560;9.714;2022-08-05T03:59:37;23.00;99.90
10249;DHT22;5169;50.560;9.714;2022-08-05T04:02:06;22.80;99.90
10249;DHT22;5169;50.560;9.714;2022-08-05T04:04:33;22.80;99.90
10249;DHT22;5169;50.560;9.714;2022-08-05T04:06:59;22.90;99.90
10249;DHT22;5169;50.560;9.714;2022-08-05T04:09:28;22.80;99.90
10249;DHT22;5169;50.560;9.714;2022-08-05T04:11:55;22.70;99.90
10249;DHT22;5169;50.560;9.714;2022-08-05T04:14:21;22.60;99.90
10249;DHT22;5169;50.560;9.714;2022-08-05T04:16:47;22.50;99.90
10249;DHT22;5169;50.560;9.714;2022-08-05T04:19:13;22.50;99.90
10249;DHT22;5169;50.560;9.714;2022-08-05T04:21:39;22.30;99.90
10249;DHT22;5169;50.560;9.714;2022-08-05T04:24:05;22.20;99.90
10249;DHT22;5169;50.560;9.714;2022-08-05T04:26:32;22.30;99.90
10249;DHT22;5169;50.560;9.714;2022-08-05T04:28:57;22.30;99.90
10249;DHT22;5169;50.560;9.714;2022-08-05T04:31:23;22.40;99.90
10249;DHT22;5169;50.560;9.714;2022-08-05T04:33:49;22.30;99.90
10249;DHT22;5169;50.560;9.714;2022-08-05T04:36:18;22.30;99.90
10249;DHT22;5169;50.560;9.714;2022-08-05T04:38:44;22.20;99.90
10249;DHT22;5169;50.560;9.714;2022-08-05T04:41:12;22.10;99.90
10249;DHT22;5169;50.560;9.714;2022-08-05T04:43:38;22.00;99.90
10249;DHT22;5169;50.560;9.714;2022-08-05T04:46:04;22.10;99.90
10249;DHT22;5169;50.560;9.714;2022-08-05T04:48:30;22.10;99.90
10249;DHT22;5169;50.560;9.714;2022-08-05T04:50:55;22.00;99.90
10249;DHT22;5169;50.560;9.714;2022-08-05T04:53:21;22.00;99.90
10249;DHT22;5169;50.560;9.714;2022-08-05T04:55:47;22.00;99.90
10249;DHT22;5169;50.560;9.714;2022-08-05T04:58:15;21.90;99.90
10249;DHT22;5169;50.560;9.714;2022-08-05T05:00:42;21.80;99.90
10249;DHT22;5169;50.560;9.714;2022-08-05T05:03:10;21.80;99.90
10249;DHT22;5169;50.560;9.714;2022-08-05T05:05:37;21.90;99.90
10249;DHT22;5169;50.560;9.714;2022-08-05T05:08:09;21.80;99.90
10249;DHT22;5169;50.560;9.714;2022-08-05T05:10:42;21.80;99.90
10249;DHT22;5169;50.560;9.714;2022-08-05T05:13:13;21.80;99.90
10249;DHT22;5169;50.560;9.714;2022-08-05T05:15:40;21.80;99.90
10249;DHT22;5169;50.560;9.714;2022-08-05T05:18:06;21.80;99.90
10249;DHT22;5169;50.560;9.714;2022-08-05T05:20:33;21.80;99.90
10249;DHT22;5169;50.560;9.714;2022-08-05T05:23:01;21.70;99.90
10249;DHT22;5169;50.560;9.714;2022-08-05T05:25:31;21.80;99.90
10249;DHT22;5169;50.560;9.714;2022-08-05T05:27:57;21.80;99.90
10249;DHT22;5169;50.560;9.714;2022-08-05T05:30:23;21.80;99.90
10249;DHT22;5169;50.560;9.714;2022-08-05T05:32:48;21.80;99.90
10249;DHT22;5169;50.560;9.714;2022-08-05T05:35:17;21.80;99.90
10249;DHT22;5169;50.560;9.714;2022-08-05T05:37:53;21.70;99.90
10249;DHT22;5169;50.560;9.714;2022-08-05T05:40:23;21.60;99.90
10249;DHT22;5169;50.560;9.714;2022-08-05T05:42:50;21.50;99.90
10249;DHT22;5169;50.560;9.714;2022-08-05T05:45:17;21.30;99.90
10249;DHT22;5169;50.560;9.714;2022-08-05T05:47:43;21.50;99.90
10249;DHT22;5169;50.560;9.714;2022-08-05T05:50:16;21.40;99.90
10249;DHT22;5169;50.560;9.714;2022-08-05T05:52:42;21.40;99.90
10249;DHT22;5169;50.560;9.714;2022-08-05T05:55:10;21.40;99.90
10249;DHT22;5169;50.560;9.714;2022-08-05T05:57:37;21.50;99.90
10249;DHT22;5169;50.560;9.714;2022-08-05T06:00:10;21.30;99.90
10249;DHT22;5169;50.560;9.714;2022-08-05T06:02:36;21.10;99.90
10249;DHT22;5169;50.560;9.714;2022-08-05T06:05:09;20.90;99.90
10249;DHT22;5169;50.560;9.714;2022-08-05T06:07:35;20.70;99.90
10249;DHT22;5169;50.560;9.714;2022-08-05T06:10:04;20.60;99.90
10249;DHT22;5169;50.560;9.714;2022-08-05T06:12:31;20.60;99.90
10249;DHT22;5169;50.560;9.714;2022-08-05T06:14:59;20.70;99.90
10249;DHT22;5169;50.560;9.714;2022-08-05T06:17:25;20.70;99.90
10249;DHT22;5169;50.560;9.714;2022-08-05T06:19:53;20.70;99.90
10249;DHT22;5169;50.560;9.714;2022-08-05T06:22:24;20.70;99.90
10249;DHT22;5169;50.560;9.714;2022-08-05T06:24:50;20.80;99.90
10249;DHT22;5169;50.560;9.714;2022-08-05T06:27:16;20.70;99.90
10249;DHT22;5169;50.560;9.714;2022-08-05T06:29:41;20.70;99.90
10249;DHT22;5169;50.560;9.714;2022-08-05T06:32:08;20.70;99.90
10249;DHT22;5169;50.560;9.714;2022-08-05T06:34:36;20.80;99.90
10249;DHT22;5169;50.560;9.714;2022-08-05T06:37:01;21.00;99.90
10249;DHT22;5169;50.560;9.714;2022-08-05T06:39:27;21.20;99.90
10249;DHT22;5169;50.560;9.714;2022-08-05T06:41:54;21.70;99.90
10249;DHT22;5169;50.560;9.714;2022-08-05T06:44:20;22.00;99.90
10249;DHT22;5169;50.560;9.714;2022-08-05T06:46:45;22.10;99.90
10249;DHT22;5169;50.560;9.714;2022-08-05T06:49:11;22.20;99.90
10249;DHT22;5169;50.560;9.714;2022-08-05T06:51:37;22.10;99.90
10249;DHT22;5169;50.560;9.714;2022-08-05T06:54:03;21.80;99.90
10249;DHT22;5169;50.560;9.714;2022-08-05T06:56:32;21.70;99.90
10249;DHT22;5169;50.560;9.714;2022-08-05T06:58:59;21.60;99.90
10249;DHT22;5169;50.560;9.714;2022-08-05T07:01:25;21.70;99.90
10249;DHT22;5169;50.560;9.714;2022-08-05T07:03:51;21.70;99.90
10249;DHT22;5169;50.560;9.714;2022-08-05T07:06:17;21.70;99.90
10249;DHT22;5169;50.560;9.714;2022-08-05T07:08:43;21.80;99.90
10249;DHT22;5169;50.560;9.714;2022-08-05T07:11:09;22.00;99.90
10249;DHT22;5169;50.560;9.714;2022-08-05T07:13:35;22.10;99.90
10249;DHT22;5169;50.560;9.714;2022-08-05T07:16:20;22.10;99.90
10249;DHT22;5169;50.560;9.714;2022-08-05T07:19:06;22.30;99.90
10249;DHT22;5169;50.560;9.714;2022-08-05T07:21:36;22.50;99.90
10249;DHT22;5169;50.560;9.714;2022-08-05T07:24:02;22.50;99.90
10249;DHT22;5169;50.560;9.714;2022-08-05T07:26:28;22.70;99.90
10249;DHT22;5169;50.560;9.714;2022-08-05T07:28:56;22.80;99.90
10249;DHT22;5169;50.560;9.714;2022-08-05T07:31:24;22.80;99.90
10249;DHT22;5169;50.560;9.714;2022-08-05T07:33:49;22.80;99.90
10249;DHT22;5169;50.560;9.714;2022-08-05T07:36:15;22.90;99.90
10249;DHT22;5169;50.560;9.714;2022-08-05T07:38:41;23.10;99.90
10249;DHT22;5169;50.560;9.714;2022-08-05T07:41:08;23.10;99.90
10249;DHT22;5169;50.560;9.714;2022-08-05T07:43:35;23.30;99.90
10249;DHT22;5169;50.560;9.714;2022-08-05T07:46:01;23.40;99.90
10249;DHT22;5169;50.560;9.714;2022-08-05T07:48:26;23.40;99.90
10249;DHT22;5169;50.560;9.714;2022-08-05T07:50:52;23.30;99.90
10249;DHT22;5169;50.560;9.714;2022-08-05T07:53:22;23.30;99.90
10249;DHT22;5169;50.560;9.714;2022-08-05T07:55:48;23.40;99.90
10249;DHT22;5169;50.560;9.714;2022-08-05T07:58:14;23.40;99.90
10249;DHT22;5169;50.560;9.714;2022-08-05T08:00:43;23.30;99.90
10249;DHT22;5169;50.560;9.714;2022-08-05T08:03:10;23.10;99.90
10249;DHT22;5169;50.560;9.714;2022-08-05T08:05:39;22.90;99.90
10249;DHT22;5169;50.560;9.714;2022-08-05T08:08:11;22.80;99.90
10249;DHT22;5169;50.560;9.714;2022-08-05T08:10:39;22.50;99.90
10249;DHT22;5169;50.560;9.714;2022-08-05T08:13:07;22.20;99.90
10249;DHT22;5169;50.560;9.714;2022-08-05T08:15:36;22.10;99.90
10249;DHT22;5169;50.560;9.714;2022-08-05T08:18:02;22.00;99.90
10249;DHT22;5169;50.560;9.714;2022-08-05T08:20:27;22.10;99.90
10249;DHT22;5169;50.560;9.714;2022-08-05T08:22:58;22.20;99.90
10249;DHT22;5169;50.560;9.714;2022-08-05T08:25:24;22.40;99.90
10249;DHT22;5169;50.560;9.714;2022-08-05T08:27:50;22.60;99.90
10249;DHT22;5169;50.560;9.714;2022-08-05T08:30:18;22.80;99.90
10249;DHT22;5169;50.560;9.714;2022-08-05T08:32:44;22.70;99.90
10249;DHT22;5169;50.560;9.714;2022-08-05T08:35:12;22.60;99.90
10249;DHT22;5169;50.560;9.714;2022-08-05T08:37:37;22.60;99.90
10249;DHT22;5169;50.560;9.714;2022-08-05T08:40:04;22.80;99.90
10249;DHT22;5169;50.560;9.714;2022-08-05T08:42:32;22.90;99.90
10249;DHT22;5169;50.560;9.714;2022-08-05T08:45:03;22.90;99.90
10249;DHT22;5169;50.560;9.714;2022-08-05T08:47:29;22.90;99.90
10249;DHT22;5169;50.560;9.714;2022-08-05T08:49:59;22.80;99.90
10249;DHT22;5169;50.560;9.714;2022-08-05T08:52:29;22.60;99.90
10249;DHT22;5169;50.560;9.714;2022-08-05T08:54:56;22.70;99.90
10249;DHT22;5169;50.560;9.714;2022-08-05T08:57:22;22.70;99.90
10249;DHT22;5169;50.560;9.714;2022-08-05T08:59:51;22.90;99.90
10249;DHT22;5169;50.560;9.714;2022-08-05T09:02:19;23.00;99.90
10249;DHT22;5169;50.560;9.714;2022-08-05T09:04:45;22.90;99.90
10249;DHT22;5169;50.560;9.714;2022-08-05T09:07:11;23.00;99.90
10249;DHT22;5169;50.560;9.714;2022-08-05T09:09:37;22.90;99.90
10249;DHT22;5169;50.560;9.714;2022-08-05T09:12:06;23.00;99.90
10249;DHT22;5169;50.560;9.714;2022-08-05T09:14:36;23.10;99.90
10249;DHT22;5169;50.560;9.714;2022-08-05T09:17:07;23.20;99.90
10249;DHT22;5169;50.560;9.714;2022-08-05T09:19:35;23.20;99.90
10249;DHT22;5169;50.560;9.714;2022-08-05T09:22:00;23.20;99.90
10249;DHT22;5169;50.560;9.714;2022-08-05T09:24:26;23.30;99.90
10249;DHT22;5169;50.560;9.714;2022-08-05T09:26:55;23.30;99.90
10249;DHT22;5169;50.560;9.714;2022-08-05T09:29:42;23.40;99.90
10249;DHT22;5169;50.560;9.714;2022-08-05T09:32:11;23.30;99.90
10249;DHT22;5169;50.560;9.714;2022-08-05T09:34:53;23.30;99.90
10249;DHT22;5169;50.560;9.714;2022-08-05T09:37:26;23.40;99.90
10249;DHT22;5169;50.560;9.714;2022-08-05T09:39:53;23.40;99.90
10249;DHT22;5169;50.560;9.714;2022-08-05T09:42:20;23.50;99.90
10249;DHT22;5169;50.560;9.714;2022-08-05T09:44:52;23.50;99.90
10249;DHT22;5169;50.560;9.714;2022-08-05T09:47:25;23.60;99.90
10249;DHT22;5169;50.560;9.714;2022-08-05T09:49:56;23.70;99.90
10249;DHT22;5169;50.560;9.714;2022-08-05T09:52:24;23.70;99.90
10249;DHT22;5169;50.560;9.714;2022-08-05T09:55:00;23.70;99.90
10249;DHT22;5169;50.560;9.714;2022-08-05T09:57:31;23.70;99.90
10249;DHT22;5169;50.560;9.714;2022-08-05T09:59:59;23.70;99.90
10249;DHT22;5169;50.560;9.714;2022-08-05T10:02:37;23.50;99.90
10249;DHT22;5169;50.560;9.714;2022-08-05T10:05:11;23.40;99.90
10249;DHT22;5169;50.560;9.714;2022-08-05T10:07:58;23.20;99.90
10249;DHT22;5169;50.560;9.714;2022-08-05T10:10:36;23.20;99.90
10249;DHT22;5169;50.560;9.714;2022-08-05T10:13:02;23.30;99.90
10249;DHT22;5169;50.560;9.714;2022-08-05T10:15:34;23.30;99.90
10249;DHT22;5169;50.560;9.714;2022-08-05T10:18:13;23.40;99.90
10249;DHT22;5169;50.560;9.714;2022-08-05T10:20:50;23.50;99.90
10249;DHT22;5169;50.560;9.714;2022-08-05T10:23:22;23.80;99.90
10249;DHT22;5169;50.560;9.714;2022-08-05T10:25:49;24.00;99.90
10249;DHT22;5169;50.560;9.714;2022-08-05T10:28:15;24.20;99.90
10249;DHT22;5169;50.560;9.714;2022-08-05T10:30:44;24.40;99.90
10249;DHT22;5169;50.560;9.714;2022-08-05T10:33:12;24.60;99.90
10249;DHT22;5169;50.560;9.714;2022-08-05T10:35:40;24.70;99.90
10249;DHT22;5169;50.560;9.714;2022-08-05T10:38:06;24.80;99.90
10249;DHT22;5169;50.560;9.714;2022-08-05T10:40:39;24.90;99.90
10249;DHT22;5169;50.560;9.714;2022-08-05T10:43:34;25.00;99.90
10249;DHT22;5169;50.560;9.714;2022-08-05T10:46:02;24.90;99.90
10249;DHT22;5169;50.560;9.714;2022-08-05T10:48:35;24.70;99.90
10249;DHT22;5169;50.560;9.714;2022-08-05T10:51:15;24.70;99.90
10249;DHT22;5169;50.560;9.714;2022-08-05T10:58:48;25.20;99.90
10249;DHT22;5169;50.560;9.714;2022-08-05T11:01:14;25.10;99.90
10249;DHT22;5169;50.560;9.714;2022-08-05T11:04:18;25.10;99.90
10249;DHT22;5169;50.560;9.714;2022-08-05T11:09:35;25.50;99.90
10249;DHT22;5169;50.560;9.714;2022-08-05T11:12:01;25.50;99.90
10249;DHT22;5169;50.560;9.714;2022-08-05T11:14:38;25.40;99.90
10249;DHT22;5169;50.560;9.714;2022-08-05T11:19:50;25.20;99.90
10249;DHT22;5169;50.560;9.714;2022-08-05T11:22:40;25.20;99.90
10249;DHT22;5169;50.560;9.714;2022-08-05T11:25:43;25.20;99.90
10249;DHT22;5169;50.560;9.714;2022-08-05T11:33:32;24.70;99.90
10249;DHT22;5169;50.560;9.714;2022-08-05T11:36:02;24.80;99.90
10249;DHT22;5169;50.560;9.714;2022-08-05T11:41:26;25.20;99.90
10249;DHT22;5169;50.560;9.714;2022-08-05T11:46:27;25.40;99.90
10249;DHT22;5169;50.560;9.714;2022-08-05T11:48:54;25.70;99.90
10249;DHT22;5169;50.560;9.714;2022-08-05T11:51:21;26.10;99.90
10249;DHT22;5169;50.560;9.714;2022-08-05T11:53:47;26.90;99.90
10249;DHT22;5169;50.560;9.714;2022-08-05T11:56:14;27.00;99.90
10249;DHT22;5169;50.560;9.714;2022-08-05T11:58:44;26.30;99.90
10249;DHT22;5169;50.560;9.714;2022-08-05T12:01:16;25.80;99.90
10249;DHT22;5169;50.560;9.714;2022-08-05T12:06:12;25.60;99.90
10249;DHT22;5169;50.560;9.714;2022-08-05T12:08:45;25.60;99.90
10249;DHT22;5169;50.560;9.714;2022-08-05T12:11:23;25.70;99.90
10249;DHT22;5169;50.560;9.714;2022-08-05T12:14:02;25.70;99.90
10249;DHT22;5169;50.560;9.714;2022-08-05T12:16:37;25.60;99.90
10249;DHT22;5169;50.560;9.714;2022-08-05T12:19:08;25.40;99.90
10249;DHT22;5169;50.560;9.714;2022-08-05T12:21:49;25.30;99.90
10249;DHT22;5169;50.560;9.714;2022-08-05T12:24:18;25.30;99.90
10249;DHT22;5169;50.560;9.714;2022-08-05T12:26:52;25.50;99.90
10249;DHT22;5169;50.560;9.714;2022-08-05T12:29:25;25.60;99.90
10249;DHT22;5169;50.560;9.714;2022-08-05T12:31:58;25.70;99.90
10249;DHT22;5169;50.560;9.714;2022-08-05T12:34:35;26.00;99.90
10249;DHT22;5169;50.560;9.714;2022-08-05T12:37:07;26.30;99.90
10249;DHT22;5169;50.560;9.714;2022-08-05T12:39:38;26.40;99.90
10249;DHT22;5169;50.560;9.714;2022-08-05T12:42:12;26.50;99.90
10249;DHT22;5169;50.560;9.714;2022-08-05T12:44:43;26.40;99.90
10249;DHT22;5169;50.560;9.714;2022-08-05T12:47:09;26.40;99.90
10249;DHT22;5169;50.560;9.714;2022-08-05T12:49:53;26.40;99.90
10249;DHT22;5169;50.560;9.714;2022-08-05T12:52:19;26.30;99.90
10249;DHT22;5169;50.560;9.714;2022-08-05T12:54:46;26.30;99.90
10249;DHT22;5169;50.560;9.714;2022-08-05T12:57:13;26.40;99.90
10249;DHT22;5169;50.560;9.714;2022-08-05T13:02:18;26.90;99.90
10249;DHT22;5169;50.560;9.714;2022-08-05T13:04:47;27.10;99.90
10249;DHT22;5169;50.560;9.714;2022-08-05T13:07:18;27.00;99.90
10249;DHT22;5169;50.560;9.714;2022-08-05T13:09:52;27.00;99.90
10249;DHT22;5169;50.560;9.714;2022-08-05T13:12:19;27.00;99.90
10249;DHT22;5169;50.560;9.714;2022-08-05T13:14:51;27.00;99.90
10249;DHT22;5169;50.560;9.714;2022-08-05T13:17:26;27.20;99.90
10249;DHT22;5169;50.560;9.714;2022-08-05T13:20:07;27.20;99.90
10249;DHT22;5169;50.560;9.714;2022-08-05T13:22:38;27.10;99.90
10249;DHT22;5169;50.560;9.714;2022-08-05T13:25:11;26.90;99.90
10249;DHT22;5169;50.560;9.714;2022-08-05T13:27:55;26.30;99.90
10249;DHT22;5169;50.560;9.714;2022-08-05T13:30:24;26.00;99.90
10249;DHT22;5169;50.560;9.714;2022-08-05T13:32:53;25.90;99.90
10249;DHT22;5169;50.560;9.714;2022-08-05T13:35:19;25.90;99.90
10249;DHT22;5169;50.560;9.714;2022-08-05T13:37:46;25.80;99.90
10249;DHT22;5169;50.560;9.714;2022-08-05T13:40:14;25.90;99.90
10249;DHT22;5169;50.560;9.714;2022-08-05T13:42:43;25.90;99.90
10249;DHT22;5169;50.560;9.714;2022-08-05T13:45:10;25.90;99.90
10249;DHT22;5169;50.560;9.714;2022-08-05T13:47:36;25.90;99.90
10249;DHT22;5169;50.560;9.714;2022-08-05T13:50:06;25.80;99.90
10249;DHT22;5169;50.560;9.714;2022-08-05T13:52:32;25.70;99.90
10249;DHT22;5169;50.560;9.714;2022-08-05T13:54:57;25.60;99.90
10249;DHT22;5169;50.560;9.714;2022-08-05T13:57:23;25.60;99.90
10249;DHT22;5169;50.560;9.714;2022-08-05T13:59:49;25.80;99.90
10249;DHT22;5169;50.560;9.714;2022-08-05T14:02:16;26.20;99.90
10249;DHT22;5169;50.560;9.714;2022-08-05T14:04:48;26.40;99.90
10249;DHT22;5169;50.560;9.714;2022-08-05T14:07:36;26.50;99.90
10249;DHT22;5169;50.560;9.714;2022-08-05T14:10:22;26.60;99.90
10249;DHT22;5169;50.560;9.714;2022-08-05T14:12:51;26.60;99.90
10249;DHT22;5169;50.560;9.714;2022-08-05T14:15:17;26.60;99.90
10249;DHT22;5169;50.560;9.714;2022-08-05T14:17:43;26.80;99.90
10249;DHT22;5169;50.560;9.714;2022-08-05T14:20:11;26.80;99.90
10249;DHT22;5169;50.560;9.714;2022-08-05T14:22:38;26.70;99.70
10249;DHT22;5169;50.560;9.714;2022-08-05T14:25:04;26.50;99.50
10249;DHT22;5169;50.560;9.714;2022-08-05T14:27:30;26.20;99.60
10249;DHT22;5169;50.560;9.714;2022-08-05T14:29:56;25.90;99.90
10249;DHT22;5169;50.560;9.714;2022-08-05T14:32:22;25.80;99.90
10249;DHT22;5169;50.560;9.714;2022-08-05T14:34:48;25.80;99.90
10249;DHT22;5169;50.560;9.714;2022-08-05T14:37:13;25.60;99.90
10249;DHT22;5169;50.560;9.714;2022-08-05T14:39:39;25.60;99.40
10249;DHT22;5169;50.560;9.714;2022-08-05T14:42:05;25.40;99.40
10249;DHT22;5169;50.560;9.714;2022-08-05T14:44:33;25.30;99.70
10249;DHT22;5169;50.560;9.714;2022-08-05T14:46:59;25.20;99.80
10249;DHT22;5169;50.560;9.714;2022-08-05T14:49:27;25.20;99.90
10249;DHT22;5169;50.560;9.714;2022-08-05T14:51:52;25.00;99.90
10249;DHT22;5169;50.560;9.714;2022-08-05T14:54:18;24.70;99.90
10249;DHT22;5169;50.560;9.714;2022-08-05T14:56:44;24.30;99.90
10249;DHT22;5169;50.560;9.714;2022-08-05T14:59:12;23.90;99.90
10249;DHT22;5169;50.560;9.714;2022-08-05T15:01:38;23.70;99.90
10249;DHT22;5169;50.560;9.714;2022-08-05T15:04:07;23.30;99.90
10249;DHT22;5169;50.560;9.714;2022-08-05T15:06:36;23.10;99.90
10249;DHT22;5169;50.560;9.714;2022-08-05T15:09:04;22.90;99.90
10249;DHT22;5169;50.560;9.714;2022-08-05T15:11:31;22.70;99.90
10249;DHT22;5169;50.560;9.714;2022-08-05T15:13:57;22.50;99.90
10249;DHT22;5169;50.560;9.714;2022-08-05T15:16:25;22.30;99.90
10249;DHT22;5169;50.560;9.714;2022-08-05T15:18:53;22.30;99.90
10249;DHT22;5169;50.560;9.714;2022-08-05T15:21:18;22.10;99.90
10249;DHT22;5169;50.560;9.714;2022-08-05T15:23:44;22.00;99.90
10249;DHT22;5169;50.560;9.714;2022-08-05T15:26:10;21.90;99.90
10249;DHT22;5169;50.560;9.714;2022-08-05T15:28:36;21.90;99.90
10249;DHT22;5169;50.560;9.714;2022-08-05T15:31:02;22.20;99.90
10249;DHT22;5169;50.560;9.714;2022-08-05T15:33:28;22.40;99.90
10249;DHT22;5169;50.560;9.714;2022-08-05T15:35:54;22.60;99.90
10249;DHT22;5169;50.560;9.714;2022-08-05T15:38:22;22.60;99.90
10249;DHT22;5169;50.560;9.714;2022-08-05T15:40:48;22.50;99.90
10249;DHT22;5169;50.560;9.714;2022-08-05T15:43:13;22.50;99.90
10249;DHT22;5169;50.560;9.714;2022-08-05T15:45:42;22.50;99.90
10249;DHT22;5169;50.560;9.714;2022-08-05T15:48:11;22.40;99.90
10249;DHT22;5169;50.560;9.714;2022-08-05T15:50:37;22.30;99.90
10249;DHT22;5169;50.560;9.714;2022-08-05T15:53:03;22.10;99.90
10249;DHT22;5169;50.560;9.714;2022-08-05T15:55:29;22.00;99.90
10249;DHT22;5169;50.560;9.714;2022-08-05T15:57:54;21.80;99.90
10249;DHT22;5169;50.560;9.714;2022-08-05T16:00:20;21.60;99.90
10249;DHT22;5169;50.560;9.714;2022-08-05T16:02:46;21.60;99.90
10249;DHT22;5169;50.560;9.714;2022-08-05T16:05:11;21.60;99.90
10249;DHT22;5169;50.560;9.714;2022-08-05T16:07:37;21.60;99.90
10249;DHT22;5169;50.560;9.714;2022-08-05T16:10:03;21.50;99.90
10249;DHT22;5169;50.560;9.714;2022-08-05T16:12:31;21.40;99.90
10249;DHT22;5169;50.560;9.714;2022-08-05T16:14:57;21.40;99.90
10249;DHT22;5169;50.560;9.714;2022-08-05T16:17:25;21.30;99.90
10249;DHT22;5169;50.560;9.714;2022-08-05T16:19:50;21.20;99.90
10249;DHT22;5169;50.560;9.714;2022-08-05T16:22:16;21.20;99.90
10249;DHT22;5169;50.560;9.714;2022-08-05T16:24:44;21.30;99.90
10249;DHT22;5169;50.560;9.714;2022-08-05T16:27:12;21.10;99.90